Crosby, TX (77532)

5:06 AM CDT on July 25, 2016 (GMT -0500)
Newport | | Change Station

Elev 69 ft 29.92 °N, 95.08 °W | Updated 14 minutes ago

Mostly Cloudy
Mostly Cloudy
79.3 °F
Feels Like 85 °F
N
0.0
Wind Variable Wind from NE

Today
High -- | Low -- °F
--% Chance of Precip.
Yesterday
High -- | Low -- °F
Precip. -- in
Pressure 29.93 in
Visibility 10.0 miles
Clouds Few 7000 ft
Mostly Cloudy 25000 ft
Heat Index 85 °F
Dew Point 79 °F
Humidity 99%
Rainfall 0.00 in
Snow Depth Not available.
6:35 AM 8:17 PM
Waning Gibbous, 67% visible
METAR KIAH 250953Z 00000KT 10SM FEW070 BKN250 27/24 A2993 RMK AO2 SLP135 T02720244
Pressure 29.93 in
Visibility 10.0 miles
Clouds Few 7000 ft
Mostly Cloudy 25000 ft
Heat Index 85 °F
Dew Point 79 °F
Humidity 99%
Rainfall 0.00 in
Snow Depth Not available.
6:35 AM 8:17 PM
Waning Gibbous, 67% visible
METAR KIAH 250953Z 00000KT 10SM FEW070 BKN250 27/24 A2993 RMK AO2 SLP135 T02720244

10-Day Weather Forecast

Almanac

Astronomy

Jul. 25, 2016 Rise Set
Actual Time
Civil Twilight
Nautical Twilight
Astronomical Twilight
Moon
Length of Visible Light
Length of Day
Tomorrow will be .
, % of the Moon is Illuminated

Today's Extremes

State Highs State Lows

Community

WunderPhotos

Upload Photos

1,927,289 photos uploaded!

WunderBlog® & News

Nearby

Air Quality

  Air Quality AQ Index Pollutant
Not available.

Snow Depth

Station Depth Elevation

Earthquake Activity

City Distance Mag. Time & Date
Minimum magnitude displayed is 2.5.

Coastal Water Temperatures

Place Temperature

Stations

Nearby Weather Stations

Station Location Temp. Windchill Dew Point Humidity Wind Precip. Elev Updated Type
                   

Watches & Warnings

There are currently no watches in effect.